PWSweather.com
Personal Weather Stations
Station Observations
RAINMAN1
Jacksonville, FL 32224

Jacksonville, FL 32224

Lat: 30.28041649, Lon: -81.46911621

Elevation: 26

Station Type: Tycon TP1080WC

Latest ConditionsUpdated 9:00:02 AM EST Saturday, Nov 22, 2014
Currently Today's Max Today's Min Today's Average
Temperature 68.5°F20.3°C 69.1°F20.6°C 62.6°F17.0°C 66.6°F19.2°C
Dew Point 66.5°F19.2°C 66.5°F19.2°C 57.2°F14.0°C 61.8°F16.6°C
Winds 5.7 mph NE9.2 kmh NE 9.9 mph ENE15.9 kmh ENE - 4.9 mph 7.9 kmh
Wind Gusts 12.1 mph19.5 kmh 15.2 mph24.5 kmh - -
Humidity 93% 97% 78% 85%
Pressure 30.03 in1016.9 mb 30.03 in1016.9 mb 29.98 in1015.2 mb -
Precipitation - 0.02 in0.5 mm - -
Hour Temp Dew Point Humidity Winds Wind Gusts Pressure Precip Precip Rate Daily Precip Total
09:00 AM 68.5°F20.3°C 66.5°F19.2°C 93% 5.7 mph NE9.2 kmh NE 12.1 mph19.5 kmh 30.03 in1016.9 mb 0.01 in0.3 mm 0.00 in/hr0.0 mm/hr 0.02 in0.5 mm
08:55 AM 68.5°F20.3°C 66.2°F19.0°C 92% 7.8 mph E12.6 kmh E 13.0 mph20.9 kmh 30.02 in1016.6 mb 0.01 in0.3 mm 0.00 in/hr0.0 mm/hr 0.02 in0.5 mm
08:50 AM 68.4°F20.2°C 66.0°F18.9°C 92% 9.0 mph E14.5 kmh E 13.0 mph20.9 kmh 30.02 in1016.6 mb 0.01 in0.3 mm 0.00 in/hr0.0 mm/hr 0.02 in0.5 mm
08:45 AM 67.8°F19.9°C 66.4°F19.1°C 95% 6.4 mph ENE10.3 kmh ENE 10.7 mph17.2 kmh 30.02 in1016.6 mb 0.01 in0.3 mm 0.00 in/hr0.0 mm/hr 0.02 in0.5 mm
08:40 AM 67.3°F19.6°C 66.4°F19.1°C 97% 5.1 mph E8.2 kmh E 8.3 mph13.4 kmh 30.01 in1016.3 mb 0.01 in0.3 mm 0.00 in/hr0.0 mm/hr 0.02 in0.5 mm
08:35 AM 67.1°F19.5°C 66.3°F19.1°C 97% 4.8 mph E7.7 kmh E 8.3 mph13.4 kmh 30.01 in1016.3 mb 0.01 in0.3 mm 0.00 in/hr0.0 mm/hr 0.02 in0.5 mm
08:30 AM 67.5°F19.7°C 66.3°F19.1°C 96% 5.4 mph E8.7 kmh E 9.2 mph14.8 kmh 30.01 in1016.3 mb 0.01 in0.3 mm 0.00 in/hr0.0 mm/hr 0.02 in0.5 mm
08:25 AM 67.8°F19.9°C 66.4°F19.1°C 95% 5.9 mph E9.5 kmh E 11.4 mph18.3 kmh 30.01 in1016.3 mb 0.01 in0.3 mm 0.00 in/hr0.0 mm/hr 0.02 in0.5 mm
08:20 AM 68.2°F20.1°C 65.5°F18.6°C 91% 5.4 mph E8.7 kmh E 11.4 mph18.3 kmh 30.01 in1016.3 mb 0.01 in0.3 mm 0.12 in/hr3.0 mm/hr 0.02 in0.5 mm
08:15 AM 68.5°F20.3°C 64.9°F18.3°C 88% 6.1 mph ENE9.8 kmh ENE 9.2 mph14.8 kmh 30.01 in1016.3 mb 0.00 in0.0 mm 0.00 in/hr0.0 mm/hr 0.00 in0.0 mm
08:10 AM 68.9°F20.5°C 65.2°F18.4°C 88% 8.3 mph NE13.4 kmh NE 9.2 mph14.8 kmh 30.01 in1016.3 mb 0.00 in0.0 mm 0.00 in/hr0.0 mm/hr 0.00 in0.0 mm
08:05 AM 68.9°F20.5°C 64.2°F17.9°C 85% 7.6 mph NE12.2 kmh NE 9.2 mph14.8 kmh 30.01 in1016.3 mb 0.00 in0.0 mm 0.00 in/hr0.0 mm/hr 0.00 in0.0 mm
08:00 AM 68.9°F20.5°C 64.2°F17.9°C 85% 6.2 mph ENE10.0 kmh ENE 10.7 mph17.2 kmh 30.01 in1016.3 mb 0.00 in0.0 mm 0.00 in/hr0.0 mm/hr 0.00 in0.0 mm
07:55 AM 68.9°F20.5°C 64.2°F17.9°C 85% 6.4 mph ENE10.3 kmh ENE 11.4 mph18.3 kmh 30.01 in1016.3 mb 0.00 in0.0 mm 0.00 in/hr0.0 mm/hr 0.00 in0.0 mm
07:50 AM 69.1°F20.6°C 64.4°F18.0°C 85% 7.9 mph E12.7 kmh E 11.4 mph18.3 kmh 30.01 in1016.3 mb 0.00 in0.0 mm 0.00 in/hr0.0 mm/hr 0.00 in0.0 mm
07:45 AM 68.9°F20.5°C 64.2°F17.9°C 85% 8.6 mph E13.8 kmh E 11.4 mph18.3 kmh 30.01 in1016.3 mb 0.00 in0.0 mm 0.00 in/hr0.0 mm/hr 0.00 in0.0 mm
07:40 AM 68.7°F20.4°C 63.7°F17.6°C 84% 7.7 mph E12.4 kmh E 10.7 mph17.2 kmh 30.01 in1016.3 mb 0.00 in0.0 mm 0.00 in/hr0.0 mm/hr 0.00 in0.0 mm
07:35 AM 68.7°F20.4°C 63.7°F17.6°C 84% 8.8 mph ENE14.2 kmh ENE 13.6 mph21.9 kmh 30.00 in1015.9 mb 0.00 in0.0 mm 0.00 in/hr0.0 mm/hr 0.00 in0.0 mm
07:30 AM 68.5°F20.3°C 63.5°F17.5°C 84% 9.9 mph ENE15.9 kmh ENE 15.2 mph24.5 kmh 30.00 in1015.9 mb 0.00 in0.0 mm 0.00 in/hr0.0 mm/hr 0.00 in0.0 mm
07:25 AM 68.2°F20.1°C 63.2°F17.3°C 84% 9.1 mph ENE14.6 kmh ENE 15.2 mph24.5 kmh 30.00 in1015.9 mb 0.00 in0.0 mm 0.00 in/hr0.0 mm/hr 0.00 in0.0 mm
07:20 AM 68.2°F20.1°C 63.5°F17.5°C 85% 7.8 mph ENE12.6 kmh ENE 12.1 mph19.5 kmh 30.00 in1015.9 mb 0.00 in0.0 mm 0.00 in/hr0.0 mm/hr 0.00 in0.0 mm
07:15 AM 67.8°F19.9°C 63.5°F17.5°C 86% 5.8 mph ENE9.3 kmh ENE 9.8 mph15.8 kmh 30.00 in1015.9 mb 0.00 in0.0 mm 0.00 in/hr0.0 mm/hr 0.00 in0.0 mm
07:10 AM 67.8°F19.9°C 63.5°F17.5°C 86% 4.5 mph NE7.2 kmh NE 6.9 mph11.1 kmh 30.00 in1015.9 mb 0.00 in0.0 mm 0.00 in/hr0.0 mm/hr 0.00 in0.0 mm
07:05 AM 67.6°F19.8°C 63.3°F17.4°C 86% 5.9 mph NE9.5 kmh NE 9.8 mph15.8 kmh 30.00 in1015.9 mb 0.00 in0.0 mm 0.00 in/hr0.0 mm/hr 0.00 in0.0 mm
07:00 AM 67.6°F19.8°C 63.3°F17.4°C 86% 8.2 mph E13.2 kmh E 15.2 mph24.5 kmh 30.00 in1015.9 mb 0.00 in0.0 mm 0.00 in/hr0.0 mm/hr 0.00 in0.0 mm
06:55 AM 67.6°F19.8°C 63.3°F17.4°C 86% 7.7 mph E12.4 kmh E 15.2 mph24.5 kmh 29.99 in1015.6 mb 0.00 in0.0 mm 0.00 in/hr0.0 mm/hr 0.00 in0.0 mm
06:50 AM 67.6°F19.8°C 63.3°F17.4°C 86% 6.1 mph ENE9.8 kmh ENE 9.2 mph14.8 kmh 30.00 in1015.9 mb 0.00 in0.0 mm 0.00 in/hr0.0 mm/hr 0.00 in0.0 mm
06:45 AM 67.5°F19.7°C 63.2°F17.3°C 86% 6.6 mph E10.6 kmh E 12.1 mph19.5 kmh 29.99 in1015.6 mb 0.00 in0.0 mm 0.00 in/hr0.0 mm/hr 0.00 in0.0 mm
06:40 AM 67.8°F19.9°C 63.2°F17.3°C 85% 6.8 mph SE10.9 kmh SE 12.1 mph19.5 kmh 29.99 in1015.6 mb 0.00 in0.0 mm 0.00 in/hr0.0 mm/hr 0.00 in0.0 mm
06:35 AM 68.0°F20.0°C 63.0°F17.2°C 84% 6.1 mph ESE9.8 kmh ESE 9.2 mph14.8 kmh 29.99 in1015.6 mb 0.00 in0.0 mm 0.00 in/hr0.0 mm/hr 0.00 in0.0 mm
06:30 AM 68.0°F20.0°C 63.0°F17.2°C 84% 6.9 mph E11.1 kmh E 11.4 mph18.3 kmh 29.99 in1015.6 mb 0.00 in0.0 mm 0.00 in/hr0.0 mm/hr 0.00 in0.0 mm
06:25 AM 68.0°F20.0°C 63.0°F17.2°C 84% 8.1 mph E13.0 kmh E 11.4 mph18.3 kmh 29.99 in1015.6 mb 0.00 in0.0 mm 0.00 in/hr0.0 mm/hr 0.00 in0.0 mm
06:20 AM 68.0°F20.0°C 63.0°F17.2°C 84% 7.6 mph E12.2 kmh E 11.4 mph18.3 kmh 30.00 in1015.9 mb 0.00 in0.0 mm 0.00 in/hr0.0 mm/hr 0.00 in0.0 mm
06:15 AM 67.8°F19.9°C 62.8°F17.1°C 84% 7.7 mph ENE12.4 kmh ENE 13.6 mph21.9 kmh 29.99 in1015.6 mb 0.00 in0.0 mm 0.00 in/hr0.0 mm/hr 0.00 in0.0 mm
06:10 AM 68.0°F20.0°C 62.7°F17.1°C 83% 8.8 mph ENE14.2 kmh ENE 13.6 mph21.9 kmh 29.99 in1015.6 mb 0.00 in0.0 mm 0.00 in/hr0.0 mm/hr 0.00 in0.0 mm
06:05 AM 68.0°F20.0°C 62.7°F17.1°C 83% 8.5 mph E13.7 kmh E 12.1 mph19.5 kmh 29.99 in1015.6 mb 0.00 in0.0 mm 0.00 in/hr0.0 mm/hr 0.00 in0.0 mm
06:00 AM 68.2°F20.1°C 62.5°F16.9°C 82% 7.8 mph ENE12.6 kmh ENE 11.4 mph18.3 kmh 29.99 in1015.6 mb 0.00 in0.0 mm 0.00 in/hr0.0 mm/hr 0.00 in0.0 mm
05:55 AM 68.2°F20.1°C 62.5°F16.9°C 82% 6.6 mph E10.6 kmh E 11.4 mph18.3 kmh 29.99 in1015.6 mb 0.00 in0.0 mm 0.00 in/hr0.0 mm/hr 0.00 in0.0 mm
05:50 AM 68.4°F20.2°C 62.7°F17.1°C 82% 5.5 mph ESE8.9 kmh ESE 10.7 mph17.2 kmh 29.99 in1015.6 mb 0.00 in0.0 mm 0.00 in/hr0.0 mm/hr 0.00 in0.0 mm
05:45 AM 68.4°F20.2°C 62.3°F16.8°C 81% 6.9 mph E11.1 kmh E 13.0 mph20.9 kmh 29.99 in1015.6 mb 0.00 in0.0 mm 0.00 in/hr0.0 mm/hr 0.00 in0.0 mm
05:40 AM 68.2°F20.1°C 62.2°F16.8°C 81% 7.0 mph E11.3 kmh E 13.0 mph20.9 kmh 29.99 in1015.6 mb 0.00 in0.0 mm 0.00 in/hr0.0 mm/hr 0.00 in0.0 mm
05:35 AM 67.8°F19.9°C 62.5°F16.9°C 83% 5.3 mph E8.5 kmh E 9.8 mph15.8 kmh 29.99 in1015.6 mb 0.00 in0.0 mm 0.00 in/hr0.0 mm/hr 0.00 in0.0 mm
05:30 AM 67.8°F19.9°C 62.5°F16.9°C 83% 5.5 mph E8.9 kmh E 9.8 mph15.8 kmh 29.98 in1015.2 mb 0.00 in0.0 mm 0.00 in/hr0.0 mm/hr 0.00 in0.0 mm
05:25 AM 67.8°F19.9°C 62.5°F16.9°C 83% 5.8 mph E9.3 kmh E 9.8 mph15.8 kmh 29.98 in1015.2 mb 0.00 in0.0 mm 0.00 in/hr0.0 mm/hr 0.00 in0.0 mm
05:20 AM 67.8°F19.9°C 62.5°F16.9°C 83% 5.8 mph E9.3 kmh E 9.8 mph15.8 kmh 29.98 in1015.2 mb 0.00 in0.0 mm 0.00 in/hr0.0 mm/hr 0.00 in0.0 mm
05:15 AM 67.6°F19.8°C 62.3°F16.8°C 83% 5.8 mph ENE9.3 kmh ENE 9.8 mph15.8 kmh 29.98 in1015.2 mb 0.00 in0.0 mm 0.00 in/hr0.0 mm/hr 0.00 in0.0 mm
05:10 AM 67.8°F19.9°C 62.5°F16.9°C 83% 5.6 mph ENE9.0 kmh ENE 9.2 mph14.8 kmh 29.99 in1015.6 mb 0.00 in0.0 mm 0.00 in/hr0.0 mm/hr 0.00 in0.0 mm
05:05 AM 67.6°F19.8°C 62.3°F16.8°C 83% 5.1 mph E8.2 kmh E 8.3 mph13.4 kmh 29.98 in1015.2 mb 0.00 in0.0 mm 0.00 in/hr0.0 mm/hr 0.00 in0.0 mm
05:00 AM 67.5°F19.7°C 62.5°F16.9°C 84% 5.0 mph E8.0 kmh E 8.3 mph13.4 kmh 29.98 in1015.2 mb 0.00 in0.0 mm 0.00 in/hr0.0 mm/hr 0.00 in0.0 mm
04:55 AM 67.5°F19.7°C 62.5°F16.9°C 84% 5.4 mph NE8.7 kmh NE 8.3 mph13.4 kmh 29.98 in1015.2 mb 0.00 in0.0 mm 0.00 in/hr0.0 mm/hr 0.00 in0.0 mm
04:50 AM 67.5°F19.7°C 62.8°F17.1°C 85% 4.6 mph NE7.4 kmh NE 7.6 mph12.2 kmh 29.98 in1015.2 mb 0.00 in0.0 mm 0.00 in/hr0.0 mm/hr 0.00 in0.0 mm
04:45 AM 67.3°F19.6°C 62.6°F17.0°C 85% 4.0 mph E6.4 kmh E 6.0 mph9.7 kmh 29.98 in1015.2 mb 0.00 in0.0 mm 0.00 in/hr0.0 mm/hr 0.00 in0.0 mm
04:40 AM 67.5°F19.7°C 63.2°F17.3°C 86% 4.0 mph E6.4 kmh E 6.0 mph9.7 kmh 29.98 in1015.2 mb 0.00 in0.0 mm 0.00 in/hr0.0 mm/hr 0.00 in0.0 mm
04:35 AM 67.3°F19.6°C 63.0°F17.2°C 86% 3.8 mph E6.1 kmh E 6.9 mph11.1 kmh 29.98 in1015.2 mb 0.00 in0.0 mm 0.00 in/hr0.0 mm/hr 0.00 in0.0 mm
04:30 AM 67.1°F19.5°C 62.8°F17.1°C 86% 3.2 mph E5.1 kmh E 6.9 mph11.1 kmh 29.98 in1015.2 mb 0.00 in0.0 mm 0.00 in/hr0.0 mm/hr 0.00 in0.0 mm
04:25 AM 67.1°F19.5°C 62.8°F17.1°C 86% 2.7 mph ENE4.3 kmh ENE 5.4 mph8.7 kmh 29.98 in1015.2 mb 0.00 in0.0 mm 0.00 in/hr0.0 mm/hr 0.00 in0.0 mm
04:20 AM 67.1°F19.5°C 62.8°F17.1°C 86% 3.1 mph ENE5.0 kmh ENE 5.4 mph8.7 kmh 29.98 in1015.2 mb 0.00 in0.0 mm 0.00 in/hr0.0 mm/hr 0.00 in0.0 mm
04:15 AM 67.1°F19.5°C 62.8°F17.1°C 86% 4.0 mph E6.4 kmh E 5.4 mph8.7 kmh 29.98 in1015.2 mb 0.00 in0.0 mm 0.00 in/hr0.0 mm/hr 0.00 in0.0 mm
04:10 AM 67.1°F19.5°C 62.8°F17.1°C 86% 5.0 mph E8.0 kmh E 5.4 mph8.7 kmh 29.99 in1015.6 mb 0.00 in0.0 mm 0.00 in/hr0.0 mm/hr 0.00 in0.0 mm
04:05 AM 67.1°F19.5°C 62.8°F17.1°C 86% 4.3 mph E6.9 kmh E 5.4 mph8.7 kmh 29.99 in1015.6 mb 0.00 in0.0 mm 0.00 in/hr0.0 mm/hr 0.00 in0.0 mm
04:00 AM 67.1°F19.5°C 62.8°F17.1°C 86% 3.5 mph E5.6 kmh E 5.4 mph8.7 kmh 29.98 in1015.2 mb 0.00 in0.0 mm 0.00 in/hr0.0 mm/hr 0.00 in0.0 mm
03:55 AM 67.1°F19.5°C 62.5°F16.9°C 85% 3.7 mph ENE6.0 kmh ENE 5.4 mph8.7 kmh 29.99 in1015.6 mb 0.00 in0.0 mm 0.00 in/hr0.0 mm/hr 0.00 in0.0 mm
03:50 AM 67.1°F19.5°C 62.1°F16.7°C 84% 3.8 mph ENE6.1 kmh ENE 6.0 mph9.7 kmh 29.98 in1015.2 mb 0.00 in0.0 mm 0.00 in/hr0.0 mm/hr 0.00 in0.0 mm
03:45 AM 67.1°F19.5°C 62.1°F16.7°C 84% 3.5 mph E5.6 kmh E 6.0 mph9.7 kmh 29.98 in1015.2 mb 0.00 in0.0 mm 0.00 in/hr0.0 mm/hr 0.00 in0.0 mm
03:40 AM 66.7°F19.3°C 61.8°F16.6°C 84% 2.8 mph E4.5 kmh E 6.0 mph9.7 kmh 29.98 in1015.2 mb 0.00 in0.0 mm 0.00 in/hr0.0 mm/hr 0.00 in0.0 mm
03:35 AM 66.9°F19.4°C 61.6°F16.4°C 83% 2.4 mph ENE3.9 kmh ENE 4.5 mph7.2 kmh 29.98 in1015.2 mb 0.00 in0.0 mm 0.00 in/hr0.0 mm/hr 0.00 in0.0 mm
03:30 AM 66.9°F19.4°C 61.6°F16.4°C 83% 2.3 mph NE3.7 kmh NE 3.8 mph6.1 kmh 29.98 in1015.2 mb 0.00 in0.0 mm 0.00 in/hr0.0 mm/hr 0.00 in0.0 mm
03:25 AM 66.9°F19.4°C 61.3°F16.3°C 82% 3.0 mph ENE4.8 kmh ENE 4.5 mph7.2 kmh 29.98 in1015.2 mb 0.00 in0.0 mm 0.00 in/hr0.0 mm/hr 0.00 in0.0 mm
03:20 AM 66.9°F19.4°C 60.9°F16.1°C 81% 3.2 mph E5.1 kmh E 6.9 mph11.1 kmh 29.99 in1015.6 mb 0.00 in0.0 mm 0.00 in/hr0.0 mm/hr 0.00 in0.0 mm
03:15 AM 66.9°F19.4°C 60.9°F16.1°C 81% 3.9 mph ENE6.3 kmh ENE 6.9 mph11.1 kmh 29.99 in1015.6 mb 0.00 in0.0 mm 0.00 in/hr0.0 mm/hr 0.00 in0.0 mm
03:10 AM 67.1°F19.5°C 61.1°F16.2°C 81% 5.1 mph NE8.2 kmh NE 6.9 mph11.1 kmh 29.99 in1015.6 mb 0.00 in0.0 mm 0.00 in/hr0.0 mm/hr 0.00 in0.0 mm
03:05 AM 66.7°F19.3°C 60.4°F15.8°C 80% 4.9 mph ENE7.9 kmh ENE 5.4 mph8.7 kmh 29.99 in1015.6 mb 0.00 in0.0 mm 0.00 in/hr0.0 mm/hr 0.00 in0.0 mm
03:00 AM 66.7°F19.3°C 60.4°F15.8°C 80% 3.7 mph E6.0 kmh E 5.4 mph8.7 kmh 29.98 in1015.2 mb 0.00 in0.0 mm 0.00 in/hr0.0 mm/hr 0.00 in0.0 mm
02:55 AM 66.6°F19.2°C 60.2°F15.7°C 80% 3.5 mph E5.6 kmh E 6.0 mph9.7 kmh 29.98 in1015.2 mb 0.00 in0.0 mm 0.00 in/hr0.0 mm/hr 0.00 in0.0 mm
02:50 AM 66.7°F19.3°C 60.0°F15.6°C 79% 3.8 mph E6.1 kmh E 6.0 mph9.7 kmh 29.98 in1015.2 mb 0.00 in0.0 mm 0.00 in/hr0.0 mm/hr 0.00 in0.0 mm
02:45 AM 66.7°F19.3°C 59.7°F15.4°C 78% 3.9 mph E6.3 kmh E 5.4 mph8.7 kmh 29.99 in1015.6 mb 0.00 in0.0 mm 0.00 in/hr0.0 mm/hr 0.00 in0.0 mm
02:40 AM 66.7°F19.3°C 59.7°F15.4°C 78% 4.0 mph NE6.4 kmh NE 6.0 mph9.7 kmh 29.99 in1015.6 mb 0.00 in0.0 mm 0.00 in/hr0.0 mm/hr 0.00 in0.0 mm
02:35 AM 66.6°F19.2°C 59.5°F15.3°C 78% 3.9 mph NE6.3 kmh NE 6.0 mph9.7 kmh 29.99 in1015.6 mb 0.00 in0.0 mm 0.00 in/hr0.0 mm/hr 0.00 in0.0 mm
02:30 AM 66.2°F19.0°C 59.5°F15.3°C 79% 3.5 mph ENE5.6 kmh ENE 5.4 mph8.7 kmh 29.99 in1015.6 mb 0.00 in0.0 mm 0.00 in/hr0.0 mm/hr 0.00 in0.0 mm
02:25 AM 66.0°F18.9°C 59.7°F15.4°C 80% 3.2 mph E5.1 kmh E 5.4 mph8.7 kmh 29.99 in1015.6 mb 0.00 in0.0 mm 0.00 in/hr0.0 mm/hr 0.00 in0.0 mm
02:20 AM 66.0°F18.9°C 60.0°F15.6°C 81% 3.6 mph E5.8 kmh E 5.4 mph8.7 kmh 29.99 in1015.6 mb 0.00 in0.0 mm 0.00 in/hr0.0 mm/hr 0.00 in0.0 mm
02:15 AM 66.2°F19.0°C 60.6°F15.9°C 82% 4.0 mph ENE6.4 kmh ENE 5.4 mph8.7 kmh 29.99 in1015.6 mb 0.00 in0.0 mm 0.00 in/hr0.0 mm/hr 0.00 in0.0 mm
02:10 AM 65.7°F18.7°C 60.4°F15.8°C 83% 3.8 mph N6.1 kmh N 4.5 mph7.2 kmh 29.99 in1015.6 mb 0.00 in0.0 mm 0.00 in/hr0.0 mm/hr 0.00 in0.0 mm
02:05 AM 65.5°F18.6°C 60.2°F15.7°C 83% 3.3 mph NNE5.3 kmh NNE 3.8 mph6.1 kmh 29.99 in1015.6 mb 0.00 in0.0 mm 0.00 in/hr0.0 mm/hr 0.00 in0.0 mm
02:00 AM 65.5°F18.6°C 60.2°F15.7°C 83% 3.3 mph E5.3 kmh E 6.9 mph11.1 kmh 29.99 in1015.6 mb 0.00 in0.0 mm 0.00 in/hr0.0 mm/hr 0.00 in0.0 mm
01:55 AM 64.9°F18.3°C 59.7°F15.4°C 83% 4.3 mph E6.9 kmh E 7.6 mph12.2 kmh 30.00 in1015.9 mb 0.00 in0.0 mm 0.00 in/hr0.0 mm/hr 0.00 in0.0 mm
01:50 AM 64.8°F18.2°C 59.8°F15.4°C 84% 4.8 mph E7.7 kmh E 7.6 mph12.2 kmh 29.99 in1015.6 mb 0.00 in0.0 mm 0.00 in/hr0.0 mm/hr 0.00 in0.0 mm
01:45 AM 64.4°F18.0°C 59.8°F15.4°C 85% 3.8 mph E6.1 kmh E 7.6 mph12.2 kmh 29.99 in1015.6 mb 0.00 in0.0 mm 0.00 in/hr0.0 mm/hr 0.00 in0.0 mm
01:40 AM 63.7°F17.6°C 60.1°F15.6°C 88% 2.9 mph E4.7 kmh E 4.5 mph7.2 kmh 29.99 in1015.6 mb 0.00 in0.0 mm 0.00 in/hr0.0 mm/hr 0.00 in0.0 mm
01:35 AM 63.3°F17.4°C 60.0°F15.6°C 89% 2.4 mph ENE3.9 kmh ENE 3.8 mph6.1 kmh 29.99 in1015.6 mb 0.00 in0.0 mm 0.00 in/hr0.0 mm/hr 0.00 in0.0 mm
01:30 AM 63.0°F17.2°C 59.7°F15.4°C 89% 2.3 mph ENE3.7 kmh ENE 4.5 mph7.2 kmh 30.00 in1015.9 mb 0.00 in0.0 mm 0.00 in/hr0.0 mm/hr 0.00 in0.0 mm
01:25 AM 62.8°F17.1°C 59.8°F15.4°C 90% 2.6 mph ENE4.2 kmh ENE 4.5 mph7.2 kmh 29.99 in1015.6 mb 0.00 in0.0 mm 0.00 in/hr0.0 mm/hr 0.00 in0.0 mm
01:20 AM 62.8°F17.1°C 59.8°F15.4°C 90% 2.3 mph NE3.7 kmh NE 4.5 mph7.2 kmh 29.99 in1015.6 mb 0.00 in0.0 mm 0.00 in/hr0.0 mm/hr 0.00 in0.0 mm
01:15 AM 62.6°F17.0°C 59.3°F15.2°C 89% 1.5 mph NE2.4 kmh NE 3.1 mph5.0 kmh 29.99 in1015.6 mb 0.00 in0.0 mm 0.00 in/hr0.0 mm/hr 0.00 in0.0 mm
01:10 AM 62.6°F17.0°C 59.0°F15.0°C 88% 0.3 mph NE0.5 kmh NE 2.2 mph3.5 kmh 29.99 in1015.6 mb 0.00 in0.0 mm 0.00 in/hr0.0 mm/hr 0.00 in0.0 mm
01:05 AM 62.8°F17.1°C 58.2°F14.6°C 85% 0.4 mph NE0.6 kmh NE 2.2 mph3.5 kmh 29.99 in1015.6 mb 0.00 in0.0 mm 0.00 in/hr0.0 mm/hr 0.00 in0.0 mm
01:00 AM 62.8°F17.1°C 58.2°F14.6°C 85% 1.5 mph NE2.4 kmh NE 2.2 mph3.5 kmh 29.99 in1015.6 mb 0.00 in0.0 mm 0.00 in/hr0.0 mm/hr 0.00 in0.0 mm
12:55 AM 63.1°F17.3°C 58.9°F14.9°C 86% 2.0 mph ENE3.2 kmh ENE 3.1 mph5.0 kmh 29.99 in1015.6 mb 0.00 in0.0 mm 0.00 in/hr0.0 mm/hr 0.00 in0.0 mm
12:50 AM 63.1°F17.3°C 58.2°F14.6°C 84% 2.1 mph NE3.4 kmh NE 3.8 mph6.1 kmh 29.99 in1015.6 mb 0.00 in0.0 mm 0.00 in/hr0.0 mm/hr 0.00 in0.0 mm
12:45 AM 63.1°F17.3°C 58.2°F14.6°C 84% 2.2 mph NE3.5 kmh NE 3.8 mph6.1 kmh 29.99 in1015.6 mb 0.00 in0.0 mm 0.00 in/hr0.0 mm/hr 0.00 in0.0 mm
12:40 AM 63.3°F17.4°C 58.1°F14.5°C 83% 2.1 mph ENE3.4 kmh ENE 3.8 mph6.1 kmh 29.99 in1015.6 mb 0.00 in0.0 mm 0.00 in/hr0.0 mm/hr 0.00 in0.0 mm
12:35 AM 63.5°F17.5°C 57.9°F14.4°C 82% 2.6 mph ENE4.2 kmh ENE 4.5 mph7.2 kmh 30.00 in1015.9 mb 0.00 in0.0 mm 0.00 in/hr0.0 mm/hr 0.00 in0.0 mm
12:30 AM 63.5°F17.5°C 57.6°F14.2°C 81% 2.7 mph NE4.3 kmh NE 4.5 mph7.2 kmh 30.00 in1015.9 mb 0.00 in0.0 mm 0.00 in/hr0.0 mm/hr 0.00 in0.0 mm
12:25 AM 63.7°F17.6°C 57.4°F14.1°C 80% 2.1 mph NE3.4 kmh NE 3.1 mph5.0 kmh 30.00 in1015.9 mb 0.00 in0.0 mm 0.00 in/hr0.0 mm/hr 0.00 in0.0 mm
12:20 AM 63.9°F17.7°C 57.2°F14.0°C 79% 2.8 mph ENE4.5 kmh ENE 6.9 mph11.1 kmh 30.00 in1015.9 mb 0.00 in0.0 mm 0.00 in/hr0.0 mm/hr 0.00 in0.0 mm
12:15 AM 64.2°F17.9°C 57.2°F14.0°C 78% 4.4 mph E7.1 kmh E 6.9 mph11.1 kmh 30.00 in1015.9 mb 0.00 in0.0 mm 0.00 in/hr0.0 mm/hr 0.00 in0.0 mm
12:10 AM 64.2°F17.9°C 57.2°F14.0°C 78% 5.7 mph E9.2 kmh E 6.0 mph9.7 kmh 30.00 in1015.9 mb 0.00 in0.0 mm 0.00 in/hr0.0 mm/hr 0.00 in0.0 mm
12:05 AM 63.9°F17.7°C 57.2°F14.0°C 79% 4.9 mph E7.9 kmh E 6.0 mph9.7 kmh 30.00 in1015.9 mb 0.00 in0.0 mm 0.00 in/hr0.0 mm/hr 0.00 in0.0 mm
12:00 AM 63.9°F17.7°C 57.2°F14.0°C 79% 3.7 mph E6.0 kmh E 6.0 mph9.7 kmh 30.00 in1015.9 mb 0.00 in0.0 mm 0.00 in/hr0.0 mm/hr 0.00 in0.0 mm